createdAt,value
2017-07-25T00:00:11.923Z,1021.46
2017-07-25T00:01:12.564Z,1021.45
2017-07-25T00:02:13.199Z,1021.46
2017-07-25T00:03:14.030Z,1021.43
2017-07-25T00:04:14.670Z,1021.48
2017-07-25T00:05:15.298Z,1021.48
2017-07-25T00:06:15.942Z,1021.52
2017-07-25T00:07:16.584Z,1021.49
2017-07-25T00:08:17.219Z,1021.47
2017-07-25T00:09:17.850Z,1021.47
2017-07-25T00:10:18.484Z,1021.46
2017-07-25T00:11:19.281Z,1021.42
2017-07-25T00:12:19.911Z,1021.42
2017-07-25T00:13:20.545Z,1021.36
2017-07-25T00:14:21.183Z,1021.45
2017-07-25T00:15:21.816Z,1021.39
2017-07-25T00:16:22.455Z,1021.38
2017-07-25T00:17:23.088Z,1021.37
2017-07-25T00:18:23.722Z,1021.36
2017-07-25T00:19:24.454Z,1021.40
2017-07-25T00:20:25.090Z,1021.41
2017-07-25T00:21:25.727Z,1021.38
2017-07-25T00:22:26.361Z,1021.26
2017-07-25T00:23:26.993Z,1021.30
2017-07-25T00:24:27.627Z,1021.29
2017-07-25T00:25:28.267Z,1021.33
2017-07-25T00:26:28.906Z,1021.22
2017-07-25T00:27:29.538Z,1021.27
2017-07-25T00:28:30.333Z,1021.28
2017-07-25T00:29:30.968Z,1021.23
2017-07-25T00:30:31.604Z,1021.16
2017-07-25T00:31:32.237Z,1021.15
2017-07-25T00:32:32.873Z,1021.19
2017-07-25T00:33:33.511Z,1021.25
2017-07-25T00:34:34.148Z,1021.22
2017-07-25T00:35:34.783Z,1021.12
2017-07-25T00:36:35.616Z,1021.19
2017-07-25T00:37:36.252Z,1021.19
2017-07-25T00:38:36.887Z,1021.22
2017-07-25T00:39:37.528Z,1021.24
2017-07-25T00:40:38.164Z,1021.22
2017-07-25T00:41:38.803Z,1021.23
2017-07-25T00:42:39.432Z,1021.31
2017-07-25T00:43:40.074Z,1021.23
2017-07-25T00:44:40.903Z,1021.26
2017-07-25T00:45:41.546Z,1021.22
2017-07-25T00:46:42.178Z,1021.20
2017-07-25T00:47:42.815Z,1021.24
2017-07-25T00:48:43.456Z,1021.28
2017-07-25T00:49:44.091Z,1021.24
2017-07-25T00:50:44.727Z,1021.24
2017-07-25T00:51:45.363Z,1021.26
2017-07-25T00:52:46.150Z,1021.17
2017-07-25T00:53:46.781Z,1021.22
2017-07-25T00:54:47.371Z,1021.10
2017-07-25T00:55:48.006Z,1021.23
2017-07-25T00:56:48.638Z,1021.22
2017-07-25T00:57:49.278Z,1021.18
2017-07-25T00:58:49.909Z,1021.20
2017-07-25T00:59:50.546Z,1021.18
2017-07-25T01:00:51.332Z,1021.16
2017-07-25T01:01:51.979Z,1021.17
2017-07-25T01:02:52.611Z,1021.07
2017-07-25T01:03:53.242Z,1021.07
2017-07-25T01:04:53.881Z,1021.03
2017-07-25T01:05:54.518Z,1021.06
2017-07-25T01:06:55.149Z,1021.06
2017-07-25T01:07:55.784Z,1021.14
2017-07-25T01:08:56.416Z,1021.13
2017-07-25T01:09:57.314Z,1021.07
2017-07-25T01:10:57.944Z,1021.03
2017-07-25T01:11:58.583Z,1021.03
2017-07-25T01:12:59.227Z,1021.03
2017-07-25T01:13:59.862Z,1021.00
2017-07-25T01:15:00.493Z,1021.06
2017-07-25T01:16:01.128Z,1021.03
2017-07-25T01:17:01.767Z,1021.01
2017-07-25T01:18:02.552Z,1021.07
2017-07-25T01:19:03.188Z,1021.07
2017-07-25T01:20:03.822Z,1021.00
2017-07-25T01:21:04.454Z,1021.05
2017-07-25T01:22:05.088Z,1020.97
2017-07-25T01:23:05.730Z,1021.02
2017-07-25T01:24:06.366Z,1021.05
2017-07-25T01:25:07.003Z,1021.03
2017-07-25T01:26:07.838Z,1021.02
2017-07-25T01:27:08.476Z,1021.02
2017-07-25T01:28:09.111Z,1020.94
2017-07-25T01:29:09.793Z,1020.95
2017-07-25T01:30:10.435Z,1020.87
2017-07-25T01:31:11.071Z,1020.94
2017-07-25T01:32:11.708Z,1020.93
2017-07-25T01:33:12.356Z,1020.94
2017-07-25T01:34:13.126Z,1020.92
2017-07-25T01:35:13.761Z,1020.94
2017-07-25T01:36:14.395Z,1020.92
2017-07-25T01:37:15.032Z,1020.92
2017-07-25T01:38:15.920Z,1020.86
2017-07-25T01:39:16.556Z,1020.85
2017-07-25T01:40:17.191Z,1020.78
2017-07-25T01:41:17.882Z,1020.78
2017-07-25T01:42:18.524Z,1020.85
2017-07-25T01:43:19.351Z,1020.80
2017-07-25T01:44:19.987Z,1020.82
2017-07-25T01:45:20.621Z,1020.82
2017-07-25T01:46:21.254Z,1020.78
2017-07-25T01:47:21.895Z,1020.81
2017-07-25T01:48:22.530Z,1020.71
2017-07-25T01:49:23.160Z,1020.81
2017-07-25T01:50:23.792Z,1020.77
2017-07-25T01:51:24.584Z,1020.72
2017-07-25T01:52:25.220Z,1020.70
2017-07-25T01:53:25.853Z,1020.74
2017-07-25T01:54:26.488Z,1020.71
2017-07-25T01:55:27.126Z,1020.67
2017-07-25T01:56:27.763Z,1020.69
2017-07-25T01:57:28.402Z,1020.67
2017-07-25T01:58:29.031Z,1020.70
2017-07-25T01:59:29.873Z,1020.67
2017-07-25T02:00:30.505Z,1020.67
2017-07-25T02:01:31.144Z,1020.70
2017-07-25T02:02:31.776Z,1020.67
2017-07-25T02:03:32.461Z,1020.63
2017-07-25T02:04:33.096Z,1020.71
2017-07-25T02:05:33.732Z,1020.64
2017-07-25T02:06:34.370Z,1020.69
2017-07-25T02:07:35.215Z,1020.65
2017-07-25T02:08:35.841Z,1020.68
2017-07-25T02:09:36.480Z,1020.67
2017-07-25T02:10:37.120Z,1020.72
2017-07-25T02:11:37.753Z,1020.69
2017-07-25T02:12:38.384Z,1020.65
2017-07-25T02:13:39.019Z,1020.59
2017-07-25T02:14:39.665Z,1020.59
2017-07-25T02:15:40.501Z,1020.65
2017-07-25T02:16:41.137Z,1020.74
2017-07-25T02:17:41.775Z,1020.68
2017-07-25T02:18:42.418Z,1020.65
2017-07-25T02:19:43.043Z,1020.70
2017-07-25T02:20:43.676Z,1020.68
2017-07-25T02:21:44.317Z,1020.69
2017-07-25T02:22:44.950Z,1020.64
2017-07-25T02:23:45.586Z,1020.70
2017-07-25T02:24:46.369Z,1020.68
2017-07-25T02:25:47.001Z,1020.64
2017-07-25T02:26:47.642Z,1020.63
2017-07-25T02:27:48.277Z,1020.60
2017-07-25T02:28:48.909Z,1020.64
2017-07-25T02:29:49.546Z,1020.58
2017-07-25T02:30:50.179Z,1020.62
2017-07-25T02:31:50.825Z,1020.57
2017-07-25T02:32:51.606Z,1020.57
2017-07-25T02:33:52.239Z,1020.59
2017-07-25T02:34:52.883Z,1020.55
2017-07-25T02:35:53.518Z,1020.59
2017-07-25T02:36:54.154Z,1020.56
2017-07-25T02:37:54.793Z,1020.52
2017-07-25T02:38:55.421Z,1020.54
2017-07-25T02:39:56.059Z,1020.52
2017-07-25T02:40:56.844Z,1020.48
2017-07-25T02:41:57.483Z,1020.56
2017-07-25T02:42:58.119Z,1020.46
2017-07-25T02:43:58.758Z,1020.46
2017-07-25T02:44:59.388Z,1020.44
2017-07-25T02:46:00.023Z,1020.44
2017-07-25T02:47:00.667Z,1020.37
2017-07-25T02:48:01.294Z,1020.45
2017-07-25T02:49:02.079Z,1020.48
2017-07-25T02:50:02.721Z,1020.46
2017-07-25T02:51:03.351Z,1020.37
2017-07-25T02:52:03.987Z,1020.45
2017-07-25T02:53:04.620Z,1020.39
2017-07-25T02:54:05.257Z,1020.44
2017-07-25T02:55:05.895Z,1020.41
2017-07-25T02:56:06.525Z,1020.38
2017-07-25T02:57:07.167Z,1020.41
2017-07-25T02:58:07.996Z,1020.44
2017-07-25T02:59:08.629Z,1020.44
2017-07-25T03:00:09.276Z,1020.46
2017-07-25T03:01:09.865Z,1020.36
2017-07-25T03:02:10.498Z,1020.39
2017-07-25T03:03:11.136Z,1020.36
2017-07-25T03:04:11.771Z,1020.32
2017-07-25T03:05:12.402Z,1020.41
2017-07-25T03:06:13.236Z,1020.43
2017-07-25T03:07:13.870Z,1020.42
2017-07-25T03:08:14.505Z,1020.41
2017-07-25T03:09:15.139Z,1020.42
2017-07-25T03:10:15.777Z,1020.37
2017-07-25T03:11:16.409Z,1020.35
2017-07-25T03:12:17.049Z,1020.37
2017-07-25T03:13:17.686Z,1020.35
2017-07-25T03:14:18.523Z,1020.36
2017-07-25T03:15:19.156Z,1020.37
2017-07-25T03:16:19.792Z,1020.41
2017-07-25T03:17:20.430Z,1020.39
2017-07-25T03:18:21.067Z,1020.40
2017-07-25T03:19:21.702Z,1020.35
2017-07-25T03:20:22.346Z,1020.33
2017-07-25T03:21:22.987Z,1020.39
2017-07-25T03:22:23.765Z,1020.39
2017-07-25T03:23:24.401Z,1020.32
2017-07-25T03:24:25.045Z,1020.32
2017-07-25T03:25:25.674Z,1020.30
2017-07-25T03:26:26.311Z,1020.27
2017-07-25T03:27:26.946Z,1020.28
2017-07-25T03:28:27.577Z,1020.28
2017-07-25T03:29:28.215Z,1020.25
2017-07-25T03:30:29.313Z,1020.22
2017-07-25T03:31:29.943Z,1020.25
2017-07-25T03:32:30.573Z,1020.18
2017-07-25T03:33:31.215Z,1020.13
2017-07-25T03:34:31.848Z,1020.13
2017-07-25T03:35:32.484Z,1020.15
2017-07-25T03:36:33.121Z,1020.12
2017-07-25T03:37:33.765Z,1020.11
2017-07-25T03:38:34.404Z,1020.08
2017-07-25T03:39:35.182Z,1020.05
2017-07-25T03:40:35.773Z,1020.11
2017-07-25T03:41:36.403Z,1020.06
2017-07-25T03:42:37.042Z,1019.99
2017-07-25T03:43:37.677Z,1020.01
2017-07-25T03:44:38.310Z,1020.04
2017-07-25T03:45:38.948Z,1020.08
2017-07-25T03:46:39.582Z,1020.06
2017-07-25T03:47:40.366Z,1020.02
2017-07-25T03:48:41.001Z,1020.01
2017-07-25T03:49:41.638Z,1020.06
2017-07-25T03:50:42.271Z,1019.98
2017-07-25T03:51:42.907Z,1019.99
2017-07-25T03:52:43.540Z,1020.03
2017-07-25T03:53:44.174Z,1019.89
2017-07-25T03:54:44.806Z,1019.99
2017-07-25T03:55:45.645Z,1020.00
2017-07-25T03:56:46.281Z,1019.96
2017-07-25T03:57:46.920Z,1019.91
2017-07-25T03:58:47.553Z,1020.00
2017-07-25T03:59:48.192Z,1020.02
2017-07-25T04:00:48.825Z,1019.99
2017-07-25T04:01:49.457Z,1020.01
2017-07-25T04:02:50.093Z,1020.05
2017-07-25T04:03:50.939Z,1020.06
2017-07-25T04:04:51.629Z,1020.00
2017-07-25T04:05:52.272Z,1019.97
2017-07-25T04:06:52.911Z,1020.05
2017-07-25T04:07:53.543Z,1019.94
2017-07-25T04:08:54.182Z,1020.01
2017-07-25T04:09:54.819Z,1020.02
2017-07-25T04:10:55.454Z,1019.87
2017-07-25T04:11:56.084Z,1020.00
2017-07-25T04:12:56.921Z,1019.90
2017-07-25T04:13:57.556Z,1019.95
2017-07-25T04:14:58.190Z,1019.91
2017-07-25T04:15:58.830Z,1019.94
2017-07-25T04:16:59.466Z,1020.00
2017-07-25T04:18:00.104Z,1019.94
2017-07-25T04:19:00.747Z,1019.95
2017-07-25T04:20:01.382Z,1019.98
2017-07-25T04:21:02.162Z,1020.05
2017-07-25T04:22:02.798Z,1020.02
2017-07-25T04:23:03.432Z,1019.96
2017-07-25T04:24:04.067Z,1020.00
2017-07-25T04:25:04.702Z,1019.93
2017-07-25T04:26:05.337Z,1019.87
2017-07-25T04:27:05.969Z,1019.91
2017-07-25T04:28:06.604Z,1019.95
2017-07-25T04:29:07.395Z,1019.92
2017-07-25T04:30:08.026Z,1019.90
2017-07-25T04:31:08.668Z,1019.98
2017-07-25T04:32:09.302Z,1019.98
2017-07-25T04:33:09.941Z,1019.91
2017-07-25T04:34:10.574Z,1019.89
2017-07-25T04:35:11.208Z,1019.99
2017-07-25T04:37:15.043Z,1019.97
2017-07-25T04:38:15.681Z,1019.98
2017-07-25T04:39:16.322Z,1019.90
2017-07-25T04:40:16.957Z,1019.99
2017-07-25T04:41:17.594Z,1019.94
2017-07-25T04:42:18.231Z,1019.96
2017-07-25T04:43:18.873Z,1020.00
2017-07-25T04:44:19.501Z,1019.98
2017-07-25T04:45:20.336Z,1020.05
2017-07-25T04:46:20.972Z,1020.00
2017-07-25T04:47:21.605Z,1019.97
2017-07-25T04:48:22.238Z,1020.02
2017-07-25T04:49:22.872Z,1020.03
2017-07-25T04:50:23.505Z,1019.98
2017-07-25T04:51:24.140Z,1019.99
2017-07-25T04:52:24.779Z,1019.96
2017-07-25T04:53:25.412Z,1020.01
2017-07-25T04:54:26.201Z,1020.00
2017-07-25T04:55:26.833Z,1019.98
2017-07-25T04:56:27.485Z,1020.05
2017-07-25T04:57:28.109Z,1020.02
2017-07-25T04:58:28.745Z,1020.00
2017-07-25T04:59:29.381Z,1020.03
2017-07-25T05:00:30.012Z,1020.03
2017-07-25T05:01:30.653Z,1019.98
2017-07-25T05:02:31.434Z,1020.12
2017-07-25T05:03:32.070Z,1020.13
2017-07-25T05:04:32.708Z,1020.05
2017-07-25T05:05:33.343Z,1020.07
2017-07-25T05:06:34.028Z,1020.01
2017-07-25T05:07:34.660Z,1020.08
2017-07-25T05:08:35.295Z,1019.99
2017-07-25T05:09:35.928Z,1020.08
2017-07-25T05:10:36.714Z,1020.10
2017-07-25T05:11:37.349Z,1020.02
2017-07-25T05:12:37.989Z,1020.08
2017-07-25T05:13:38.619Z,1020.03
2017-07-25T05:14:39.255Z,1019.99
2017-07-25T05:15:39.889Z,1020.01
2017-07-25T05:16:40.524Z,1019.99
2017-07-25T05:17:41.160Z,1020.02
2017-07-25T05:18:42.097Z,1020.06
2017-07-25T05:19:42.730Z,1019.99
2017-07-25T05:20:43.365Z,1020.05
2017-07-25T05:21:44.001Z,1020.06
2017-07-25T05:22:44.635Z,1020.07
2017-07-25T05:23:45.277Z,1020.05
2017-07-25T05:24:45.913Z,1020.05
2017-07-25T05:25:46.554Z,1020.12
2017-07-25T05:26:47.389Z,1020.06
2017-07-25T05:27:48.028Z,1020.10
2017-07-25T05:28:48.666Z,1020.08
2017-07-25T05:29:49.354Z,1020.17
2017-07-25T05:30:49.996Z,1020.17
2017-07-25T05:31:50.630Z,1020.16
2017-07-25T05:32:51.265Z,1020.06
2017-07-25T05:33:51.907Z,1020.18
2017-07-25T05:34:52.542Z,1020.09
2017-07-25T05:35:53.429Z,1020.12
2017-07-25T05:36:54.074Z,1020.16
2017-07-25T05:37:54.761Z,1020.20
2017-07-25T05:38:55.394Z,1020.11
2017-07-25T05:39:56.036Z,1020.14
2017-07-25T05:40:56.676Z,1020.16
2017-07-25T05:41:57.314Z,1020.22
2017-07-25T05:42:57.947Z,1020.19
2017-07-25T05:43:58.835Z,1020.17
2017-07-25T05:44:59.471Z,1020.13
2017-07-25T05:46:00.113Z,1020.17
2017-07-25T05:47:00.747Z,1020.06
2017-07-25T05:48:01.381Z,1020.12
2017-07-25T05:49:02.026Z,1020.17
2017-07-25T05:50:02.671Z,1020.12
2017-07-25T05:51:03.307Z,1020.11
2017-07-25T05:52:04.145Z,1020.12
2017-07-25T05:53:04.789Z,1020.16
2017-07-25T05:54:05.423Z,1020.10
2017-07-25T05:55:06.061Z,1020.11
2017-07-25T05:56:06.700Z,1020.16
2017-07-25T05:57:07.336Z,1020.11
2017-07-25T05:58:07.972Z,1020.12
2017-07-25T05:59:08.610Z,1020.12
2017-07-25T06:00:09.455Z,1020.07
2017-07-25T06:01:10.089Z,1020.08
2017-07-25T06:02:10.725Z,1020.13
2017-07-25T06:03:11.366Z,1020.08
2017-07-25T06:04:12.002Z,1020.09
2017-07-25T06:05:12.696Z,1020.10
2017-07-25T06:06:13.331Z,1020.11
2017-07-25T06:07:13.968Z,1020.10
2017-07-25T06:08:14.606Z,1020.14
2017-07-25T06:09:15.395Z,1020.13
2017-07-25T06:10:16.039Z,1020.19
2017-07-25T06:11:16.669Z,1020.15
2017-07-25T06:12:17.308Z,1020.22
2017-07-25T06:13:17.951Z,1020.26
2017-07-25T06:14:18.595Z,1020.24
2017-07-25T06:15:19.241Z,1020.26
2017-07-25T06:16:19.875Z,1020.34
2017-07-25T06:17:20.708Z,1020.35
2017-07-25T06:18:21.353Z,1020.25
2017-07-25T06:19:21.986Z,1020.24
2017-07-25T06:20:22.622Z,1020.29
2017-07-25T06:21:23.261Z,1020.24
2017-07-25T06:22:23.904Z,1020.16
2017-07-25T06:23:24.538Z,1020.25
2017-07-25T06:24:25.177Z,1020.30
2017-07-25T06:25:26.068Z,1020.26
2017-07-25T06:26:26.706Z,1020.26
2017-07-25T06:27:27.355Z,1020.24
2017-07-25T06:28:28.054Z,1020.31
2017-07-25T06:29:28.682Z,1020.28
2017-07-25T06:30:29.320Z,1020.33
2017-07-25T06:31:29.956Z,1020.35
2017-07-25T06:32:30.599Z,1020.31
2017-07-25T06:33:31.389Z,1020.35
2017-07-25T06:34:32.029Z,1020.34
2017-07-25T06:35:32.671Z,1020.32
2017-07-25T06:36:33.313Z,1020.34
2017-07-25T06:37:33.952Z,1020.36
2017-07-25T06:38:34.590Z,1020.26
2017-07-25T06:39:35.236Z,1020.31
2017-07-25T06:40:35.866Z,1020.30
2017-07-25T06:41:36.712Z,1020.34
2017-07-25T06:42:37.349Z,1020.30
2017-07-25T06:43:37.988Z,1020.37
2017-07-25T06:44:38.630Z,1020.33
2017-07-25T06:45:39.270Z,1020.28
2017-07-25T06:46:39.904Z,1020.31
2017-07-25T06:47:40.545Z,1020.29
2017-07-25T06:48:41.184Z,1020.31
2017-07-25T06:49:41.819Z,1020.35
2017-07-25T06:50:42.659Z,1020.39
2017-07-25T06:51:43.309Z,1020.35
2017-07-25T06:52:43.944Z,1020.44
2017-07-25T06:53:44.586Z,1020.35
2017-07-25T06:54:45.234Z,1020.23
2017-07-25T06:55:45.869Z,1020.30
2017-07-25T06:56:46.511Z,1020.29
2017-07-25T06:57:47.145Z,1020.36
2017-07-25T06:58:47.986Z,1020.27
2017-07-25T06:59:48.630Z,1020.23
2017-07-25T07:00:49.266Z,1020.25
2017-07-25T07:01:49.903Z,1020.26
2017-07-25T07:02:50.545Z,1020.28
2017-07-25T07:03:51.190Z,1020.20
2017-07-25T07:04:51.828Z,1020.26
2017-07-25T07:05:52.466Z,1020.22
2017-07-25T07:06:53.305Z,1020.23
2017-07-25T07:07:53.951Z,1020.20
2017-07-25T07:08:54.595Z,1020.17
2017-07-25T07:09:55.230Z,1020.26
2017-07-25T07:10:55.873Z,1020.18
2017-07-25T07:11:56.509Z,1020.29
2017-07-25T07:12:57.146Z,1020.38
2017-07-25T07:13:57.785Z,1020.18
2017-07-25T07:14:58.636Z,1020.20
2017-07-25T07:15:59.269Z,1020.25
2017-07-25T07:16:59.913Z,1020.16
2017-07-25T07:18:00.558Z,1020.22
2017-07-25T07:19:01.212Z,1020.23
2017-07-25T07:20:01.901Z,1020.20
2017-07-25T07:21:02.586Z,1020.19
2017-07-25T07:22:03.224Z,1020.13
2017-07-25T07:23:03.863Z,1020.18
2017-07-25T07:24:04.653Z,1020.16
2017-07-25T07:25:05.298Z,1020.12
2017-07-25T07:26:05.938Z,1020.18
2017-07-25T07:27:06.574Z,1020.23
2017-07-25T07:28:07.222Z,1020.11
2017-07-25T07:29:07.859Z,1020.19
2017-07-25T07:30:08.496Z,1020.09
2017-07-25T07:31:09.141Z,1020.14
2017-07-25T07:32:09.982Z,1020.15
2017-07-25T07:33:10.617Z,1020.17
2017-07-25T07:34:11.254Z,1020.15
2017-07-25T07:35:11.896Z,1020.24
2017-07-25T07:36:12.541Z,1020.16
2017-07-25T07:37:13.175Z,1020.17
2017-07-25T07:38:13.817Z,1020.24
2017-07-25T07:39:14.453Z,1020.21
2017-07-25T07:40:15.248Z,1020.26
2017-07-25T07:41:15.909Z,1020.30
2017-07-25T07:42:16.526Z,1020.26
2017-07-25T07:43:17.162Z,1020.19
2017-07-25T07:44:17.801Z,1020.23
2017-07-25T07:45:18.440Z,1020.22
2017-07-25T07:46:19.085Z,1020.17
2017-07-25T07:47:19.721Z,1020.25
2017-07-25T07:48:20.559Z,1020.25
2017-07-25T07:49:21.196Z,1020.26
2017-07-25T07:50:21.847Z,1020.21
2017-07-25T07:51:22.491Z,1020.13
2017-07-25T07:52:23.125Z,1020.12
2017-07-25T07:53:23.770Z,1020.22
2017-07-25T07:54:24.421Z,1020.22
2017-07-25T07:55:25.052Z,1020.34
2017-07-25T07:56:25.835Z,1020.25
2017-07-25T07:57:26.472Z,1020.32
2017-07-25T07:58:27.117Z,1020.25
2017-07-25T07:59:27.754Z,1020.25
2017-07-25T08:00:28.397Z,1020.28
2017-07-25T08:01:29.032Z,1020.31
2017-07-25T08:02:29.669Z,1020.22
2017-07-25T08:03:30.311Z,1020.28
2017-07-25T08:04:30.951Z,1020.28
2017-07-25T08:05:31.796Z,1020.18
2017-07-25T08:06:32.436Z,1020.24
2017-07-25T08:07:33.077Z,1020.17
2017-07-25T08:08:33.718Z,1020.24
2017-07-25T08:09:34.354Z,1020.30
2017-07-25T08:10:35.001Z,1020.25
2017-07-25T08:11:35.696Z,1020.25
2017-07-25T08:12:36.337Z,1020.36
2017-07-25T08:13:37.175Z,1020.35
2017-07-25T08:14:37.811Z,1020.38
2017-07-25T08:15:38.454Z,1020.42
2017-07-25T08:16:39.088Z,1020.38
2017-07-25T08:17:39.727Z,1020.46
2017-07-25T08:18:40.366Z,1020.42
2017-07-25T08:19:41.005Z,1020.39
2017-07-25T08:20:41.644Z,1020.49
2017-07-25T08:21:42.486Z,1020.40
2017-07-25T08:22:43.123Z,1020.32
2017-07-25T08:23:43.764Z,1020.30
2017-07-25T08:24:44.402Z,1020.25
2017-07-25T08:25:45.048Z,1020.35
2017-07-25T08:26:45.683Z,1020.31
2017-07-25T08:27:46.321Z,1020.40
2017-07-25T08:28:46.969Z,1020.40
2017-07-25T08:29:47.806Z,1020.47
2017-07-25T08:30:48.456Z,1020.40
2017-07-25T08:31:49.087Z,1020.48
2017-07-25T08:32:49.737Z,1020.45
2017-07-25T08:33:50.379Z,1020.36
2017-07-25T08:34:51.012Z,1020.49
2017-07-25T08:35:51.649Z,1020.52
2017-07-25T08:36:52.291Z,1020.46
2017-07-25T08:37:52.934Z,1020.49
2017-07-25T08:38:53.717Z,1020.51
2017-07-25T08:39:54.364Z,1020.44
2017-07-25T08:40:55.002Z,1020.47
2017-07-25T08:41:55.642Z,1020.39
2017-07-25T08:42:56.279Z,1020.47
2017-07-25T08:43:56.918Z,1020.39
2017-07-25T08:44:57.556Z,1020.46
2017-07-25T08:45:58.197Z,1020.47
2017-07-25T08:46:59.037Z,1020.45
2017-07-25T08:47:59.675Z,1020.45
2017-07-25T08:49:00.320Z,1020.39
2017-07-25T08:50:00.964Z,1020.54
2017-07-25T08:51:01.614Z,1020.54
2017-07-25T08:52:02.307Z,1020.58
2017-07-25T08:53:02.946Z,1020.49
2017-07-25T08:54:03.583Z,1020.55
2017-07-25T08:55:04.382Z,1020.51
2017-07-25T08:56:05.026Z,1020.39
2017-07-25T08:57:05.659Z,1020.38
2017-07-25T08:58:06.306Z,1020.43
2017-07-25T08:59:06.947Z,1020.46
2017-07-25T09:00:07.583Z,1020.49
2017-07-25T09:01:08.228Z,1020.38
2017-07-25T09:02:08.864Z,1020.44
2017-07-25T09:03:09.802Z,1020.51
2017-07-25T09:04:10.452Z,1020.41
2017-07-25T09:05:11.088Z,1020.37
2017-07-25T09:06:11.731Z,1020.37
2017-07-25T09:07:12.365Z,1020.49
2017-07-25T09:08:13.015Z,1020.51
2017-07-25T09:09:13.660Z,1020.51
2017-07-25T09:10:14.298Z,1020.45
2017-07-25T09:11:15.086Z,1020.47
2017-07-25T09:12:15.725Z,1020.42
2017-07-25T09:13:16.368Z,1020.46
2017-07-25T09:14:17.003Z,1020.45
2017-07-25T09:15:17.654Z,1020.44
2017-07-25T09:16:18.294Z,1020.37
2017-07-25T09:17:18.936Z,1020.46
2017-07-25T09:18:19.569Z,1020.39
2017-07-25T09:19:20.209Z,1020.41
2017-07-25T09:20:21.252Z,1020.42
2017-07-25T09:21:21.886Z,1020.47
2017-07-25T09:22:22.524Z,1020.41
2017-07-25T09:23:23.167Z,1020.38
2017-07-25T09:24:23.811Z,1020.46
2017-07-25T09:25:24.446Z,1020.40
2017-07-25T09:26:25.087Z,1020.40
2017-07-25T09:27:25.724Z,1020.46
2017-07-25T09:28:26.521Z,1020.44
2017-07-25T09:29:27.162Z,1020.44
2017-07-25T09:30:27.798Z,1020.44
2017-07-25T09:31:28.437Z,1020.47
2017-07-25T09:32:29.076Z,1020.38
2017-07-25T09:33:29.723Z,1020.36
2017-07-25T09:34:30.357Z,1020.37
2017-07-25T09:35:30.997Z,1020.40
2017-07-25T09:36:31.841Z,1020.31
2017-07-25T09:37:32.483Z,1020.31
2017-07-25T09:38:33.124Z,1020.36
2017-07-25T09:39:33.760Z,1020.27
2017-07-25T09:40:34.398Z,1020.23
2017-07-25T09:41:35.038Z,1020.27
2017-07-25T09:42:35.684Z,1020.30
2017-07-25T09:43:36.321Z,1020.31
2017-07-25T09:44:37.161Z,1020.25
2017-07-25T09:45:37.802Z,1020.24
2017-07-25T09:46:38.491Z,1020.23
2017-07-25T09:47:39.131Z,1020.25
2017-07-25T09:48:39.772Z,1020.33
2017-07-25T09:49:40.416Z,1020.34
2017-07-25T09:50:41.051Z,1020.27
2017-07-25T09:51:41.690Z,1020.30
2017-07-25T09:52:42.337Z,1020.31
2017-07-25T09:53:43.176Z,1020.28
2017-07-25T09:54:43.816Z,1020.32
2017-07-25T09:55:44.453Z,1020.28
2017-07-25T09:56:45.097Z,1020.29
2017-07-25T09:57:45.735Z,1020.19
2017-07-25T09:58:46.390Z,1020.26
2017-07-25T09:59:47.036Z,1020.21
2017-07-25T10:00:47.681Z,1020.20
2017-07-25T10:01:48.472Z,1020.22
2017-07-25T10:02:49.107Z,1020.25
2017-07-25T10:03:49.797Z,1020.23
2017-07-25T10:04:50.446Z,1020.28
2017-07-25T10:05:51.084Z,1020.28
2017-07-25T10:06:51.718Z,1020.24
2017-07-25T10:07:52.359Z,1020.26
2017-07-25T10:08:52.998Z,1020.28
2017-07-25T10:09:53.872Z,1020.25
2017-07-25T10:10:54.514Z,1020.27
2017-07-25T10:11:55.157Z,1020.24
2017-07-25T10:12:55.801Z,1020.32
2017-07-25T10:13:56.445Z,1020.33
2017-07-25T10:14:57.086Z,1020.34
2017-07-25T10:15:57.777Z,1020.28
2017-07-25T10:16:58.413Z,1020.36
2017-07-25T10:17:59.254Z,1020.30
2017-07-25T10:19:01.233Z,1020.36
2017-07-25T10:20:01.539Z,1020.27
2017-07-25T10:21:02.182Z,1020.26
2017-07-25T10:22:02.825Z,1020.19
2017-07-25T10:23:03.464Z,1020.25
2017-07-25T10:24:04.107Z,1020.20
2017-07-25T10:25:07.723Z,1020.18
2017-07-25T10:26:08.842Z,1020.20
2017-07-25T10:27:09.479Z,1020.21
2017-07-25T10:28:10.134Z,1020.10
2017-07-25T10:29:10.774Z,1020.18
2017-07-25T10:30:11.413Z,1020.14
2017-07-25T10:31:12.052Z,1020.12
2017-07-25T10:32:12.693Z,1020.21
2017-07-25T10:33:13.338Z,1020.21
2017-07-25T10:34:15.761Z,1020.20
2017-07-25T10:35:15.862Z,1020.18
2017-07-25T10:36:25.743Z,1020.20
2017-07-25T10:37:24.297Z,1020.16
2017-07-25T10:38:25.197Z,1020.19
2017-07-25T10:39:26.589Z,1020.19
2017-07-25T10:40:27.229Z,1020.22
2017-07-25T10:41:27.938Z,1020.18
2017-07-25T10:42:28.567Z,1020.18
2017-07-25T10:43:29.361Z,1020.15
2017-07-25T10:44:29.998Z,1020.19
2017-07-25T10:45:36.237Z,1020.24
2017-07-25T10:46:36.832Z,1020.12
2017-07-25T10:47:39.046Z,1020.05
2017-07-25T10:48:39.112Z,1020.05
2017-07-25T10:49:39.749Z,1020.04
2017-07-25T10:50:40.390Z,1020.07
2017-07-25T10:51:41.338Z,1020.09
2017-07-25T10:52:41.981Z,1020.11
2017-07-25T10:53:42.618Z,1020.06
2017-07-25T10:54:43.259Z,1019.98
2017-07-25T10:55:43.900Z,1020.03
2017-07-25T10:56:44.547Z,1020.04
2017-07-25T10:57:45.187Z,1020.03
2017-07-25T10:58:45.828Z,1020.02
2017-07-25T10:59:46.672Z,1019.99
2017-07-25T11:00:48.889Z,1020.03
2017-07-25T11:01:48.947Z,1019.96
2017-07-25T11:02:49.592Z,1020.05
2017-07-25T11:03:50.231Z,1019.96
2017-07-25T11:04:50.889Z,1019.94
2017-07-25T11:05:51.526Z,1019.99
2017-07-25T11:06:52.166Z,1020.10
2017-07-25T11:07:52.958Z,1019.95
2017-07-25T11:08:53.694Z,1019.97
2017-07-25T11:10:01.479Z,1019.95
2017-07-25T11:11:01.409Z,1019.93
2017-07-25T11:12:02.048Z,1020.00
2017-07-25T11:13:02.689Z,1019.92
2017-07-25T11:14:03.799Z,1019.96
2017-07-25T11:15:05.365Z,1019.92
2017-07-25T11:16:06.206Z,1019.97
2017-07-25T11:17:06.851Z,1019.91
2017-07-25T11:18:07.488Z,1020.01
2017-07-25T11:19:08.135Z,1019.85
2017-07-25T11:20:08.793Z,1019.93
2017-07-25T11:21:09.476Z,1019.97
2017-07-25T11:22:10.125Z,1019.90
2017-07-25T11:23:10.765Z,1020.01
2017-07-25T11:24:11.421Z,1019.91
2017-07-25T11:25:12.215Z,1019.94
2017-07-25T11:26:13.211Z,1019.96
2017-07-25T11:31:48.856Z,1019.93
2017-07-25T11:39:55.016Z,1019.85
2017-07-25T11:41:09.153Z,1019.80
2017-07-25T11:42:14.920Z,1019.73
2017-07-25T11:43:17.148Z,1019.79
2017-07-25T11:44:16.665Z,1019.82
2017-07-25T11:45:21.011Z,1019.70
2017-07-25T11:46:19.276Z,1019.66
2017-07-25T11:47:20.945Z,1019.72
2017-07-25T11:48:22.997Z,1019.70
2017-07-25T11:49:23.402Z,1019.70
2017-07-25T11:50:24.062Z,1019.73
2017-07-25T11:51:24.698Z,1019.73
2017-07-25T11:52:25.346Z,1019.72
2017-07-25T11:53:25.996Z,1019.74
2017-07-25T11:54:28.155Z,1019.81
2017-07-25T11:55:28.942Z,1019.82
2017-07-25T11:56:29.591Z,1019.75
2017-07-25T11:59:09.971Z,1019.84
2017-07-25T12:00:10.588Z,1019.75
2017-07-25T12:01:11.265Z,1019.85
2017-07-25T12:02:11.959Z,1019.81
2017-07-25T12:03:12.604Z,1019.72
2017-07-25T12:04:13.308Z,1019.78
2017-07-25T12:05:15.522Z,1019.83
2017-07-25T12:06:15.800Z,1019.76
2017-07-25T12:07:16.446Z,1019.76
2017-07-25T12:08:17.103Z,1019.70
2017-07-25T12:09:17.742Z,1019.75
2017-07-25T12:10:18.389Z,1019.76
2017-07-25T12:11:19.055Z,1019.72
2017-07-25T12:12:19.705Z,1019.67
2017-07-25T12:13:20.729Z,1019.65
2017-07-25T12:14:21.487Z,1019.65
2017-07-25T12:15:22.210Z,1019.72
2017-07-25T12:16:22.847Z,1019.58
2017-07-25T12:17:23.528Z,1019.71
2017-07-25T12:18:24.130Z,1019.58
2017-07-25T12:19:24.774Z,1019.58
2017-07-25T12:20:25.426Z,1019.65
2017-07-25T12:21:26.072Z,1019.59
2017-07-25T12:22:26.726Z,1019.62
2017-07-25T12:23:27.579Z,1019.70
2017-07-25T12:24:28.229Z,1019.64
2017-07-25T12:25:28.877Z,1019.66
2017-07-25T12:26:29.530Z,1019.70
2017-07-25T12:27:30.174Z,1019.65
2017-07-25T12:28:30.828Z,1019.71